Lapaz, Indiana
Current Conditions -  °F | °C
As of 11:26 PM on Thursday 18 Dec 2014 (Local Time) from KSBN Reporting Station
Overcast Overcast  
Wind Chill: 20°   Ceiling: 1400
Heat Index: 28°   Visibility: 10mi
Dew Point: 20°   Wind: 8mph
Humidity: 72%   Direction: 230°SW
Pressure: 30.24"   Gusts: NA
Location:  41.46°N, 86.31°W
Report Text: KSBN 190426Z 23007KT 10SM OVC014 M02/M07 A3024 RMK AO2 T10221067
Loading
Personal Weather Stations






























Interactive Weather Map New forecast layout! Learn more

10-Day Weather Forecast

Advertisements
Track Severe Weather on mobile